sensor_id;sensor_type;location;lat;lon;timestamp;temperature;humidity
16158;DHT22;8184;60.256;18.694;2022-07-23T00:02:01;15.60;99.90
16158;DHT22;8184;60.256;18.694;2022-07-23T00:04:31;15.60;99.90
16158;DHT22;8184;60.256;18.694;2022-07-23T00:07:02;15.80;99.90
16158;DHT22;8184;60.256;18.694;2022-07-23T00:09:30;15.80;99.90
16158;DHT22;8184;60.256;18.694;2022-07-23T00:11:58;15.70;99.90
16158;DHT22;8184;60.256;18.694;2022-07-23T00:14:26;15.60;99.90
16158;DHT22;8184;60.256;18.694;2022-07-23T00:16:54;15.60;99.90
16158;DHT22;8184;60.256;18.694;2022-07-23T00:19:22;15.40;99.90
16158;DHT22;8184;60.256;18.694;2022-07-23T00:21:51;15.40;99.90
16158;DHT22;8184;60.256;18.694;2022-07-23T00:24:20;15.50;99.90
16158;DHT22;8184;60.256;18.694;2022-07-23T00:26:48;15.60;99.90
16158;DHT22;8184;60.256;18.694;2022-07-23T00:29:16;15.60;99.90
16158;DHT22;8184;60.256;18.694;2022-07-23T00:31:44;15.60;99.90
16158;DHT22;8184;60.256;18.694;2022-07-23T00:34:13;15.50;99.90
16158;DHT22;8184;60.256;18.694;2022-07-23T00:36:42;15.50;99.90
16158;DHT22;8184;60.256;18.694;2022-07-23T00:39:11;15.50;99.90
16158;DHT22;8184;60.256;18.694;2022-07-23T00:41:39;15.50;99.90
16158;DHT22;8184;60.256;18.694;2022-07-23T00:44:14;15.50;99.90
16158;DHT22;8184;60.256;18.694;2022-07-23T00:46:44;15.40;99.90
16158;DHT22;8184;60.256;18.694;2022-07-23T00:49:14;15.50;99.90
16158;DHT22;8184;60.256;18.694;2022-07-23T00:51:43;15.30;99.90
16158;DHT22;8184;60.256;18.694;2022-07-23T00:54:12;15.30;99.90
16158;DHT22;8184;60.256;18.694;2022-07-23T00:56:40;15.20;99.90
16158;DHT22;8184;60.256;18.694;2022-07-23T00:59:09;15.20;99.90
16158;DHT22;8184;60.256;18.694;2022-07-23T01:01:37;15.30;99.90
16158;DHT22;8184;60.256;18.694;2022-07-23T01:04:06;15.40;99.90
16158;DHT22;8184;60.256;18.694;2022-07-23T01:06:35;15.30;99.90
16158;DHT22;8184;60.256;18.694;2022-07-23T01:09:03;15.40;99.90
16158;DHT22;8184;60.256;18.694;2022-07-23T01:11:33;15.10;99.90
16158;DHT22;8184;60.256;18.694;2022-07-23T01:14:09;15.20;99.90
16158;DHT22;8184;60.256;18.694;2022-07-23T01:16:37;15.30;99.90
16158;DHT22;8184;60.256;18.694;2022-07-23T01:19:05;15.50;99.90
16158;DHT22;8184;60.256;18.694;2022-07-23T01:21:35;15.40;99.90
16158;DHT22;8184;60.256;18.694;2022-07-23T01:24:06;15.50;99.90
16158;DHT22;8184;60.256;18.694;2022-07-23T01:26:34;15.50;99.90
16158;DHT22;8184;60.256;18.694;2022-07-23T01:29:02;15.40;99.90
16158;DHT22;8184;60.256;18.694;2022-07-23T01:31:31;15.40;99.90
16158;DHT22;8184;60.256;18.694;2022-07-23T01:33:59;15.30;99.90
16158;DHT22;8184;60.256;18.694;2022-07-23T01:36:27;15.30;99.90
16158;DHT22;8184;60.256;18.694;2022-07-23T01:38:55;15.40;99.90
16158;DHT22;8184;60.256;18.694;2022-07-23T01:41:26;15.30;99.90
16158;DHT22;8184;60.256;18.694;2022-07-23T01:43:55;15.30;99.90
16158;DHT22;8184;60.256;18.694;2022-07-23T01:46:23;15.40;99.90
16158;DHT22;8184;60.256;18.694;2022-07-23T01:48:51;15.50;99.90
16158;DHT22;8184;60.256;18.694;2022-07-23T01:51:20;15.60;99.90
16158;DHT22;8184;60.256;18.694;2022-07-23T01:53:48;15.60;99.90
16158;DHT22;8184;60.256;18.694;2022-07-23T01:56:16;15.40;99.90
16158;DHT22;8184;60.256;18.694;2022-07-23T01:58:47;15.50;99.90
16158;DHT22;8184;60.256;18.694;2022-07-23T02:01:15;15.40;99.90
16158;DHT22;8184;60.256;18.694;2022-07-23T02:03:43;15.40;99.90
16158;DHT22;8184;60.256;18.694;2022-07-23T02:06:12;15.40;99.90
16158;DHT22;8184;60.256;18.694;2022-07-23T02:08:39;15.50;99.90
16158;DHT22;8184;60.256;18.694;2022-07-23T02:11:08;15.50;99.90
16158;DHT22;8184;60.256;18.694;2022-07-23T02:13:38;15.40;99.90
16158;DHT22;8184;60.256;18.694;2022-07-23T02:16:07;15.30;99.90
16158;DHT22;8184;60.256;18.694;2022-07-23T02:18:36;15.30;99.90
16158;DHT22;8184;60.256;18.694;2022-07-23T02:21:04;15.30;99.90
16158;DHT22;8184;60.256;18.694;2022-07-23T02:23:34;15.40;99.90
16158;DHT22;8184;60.256;18.694;2022-07-23T02:26:03;15.40;99.90
16158;DHT22;8184;60.256;18.694;2022-07-23T02:28:34;15.40;99.90
16158;DHT22;8184;60.256;18.694;2022-07-23T02:31:02;15.50;99.90
16158;DHT22;8184;60.256;18.694;2022-07-23T02:33:31;15.60;99.90
16158;DHT22;8184;60.256;18.694;2022-07-23T02:36:00;15.50;99.90
16158;DHT22;8184;60.256;18.694;2022-07-23T02:38:28;15.60;99.90
16158;DHT22;8184;60.256;18.694;2022-07-23T02:40:56;15.40;99.90
16158;DHT22;8184;60.256;18.694;2022-07-23T02:43:24;15.40;99.90
16158;DHT22;8184;60.256;18.694;2022-07-23T02:45:52;15.50;99.90
16158;DHT22;8184;60.256;18.694;2022-07-23T02:48:20;15.40;99.90
16158;DHT22;8184;60.256;18.694;2022-07-23T02:50:50;15.40;99.90
16158;DHT22;8184;60.256;18.694;2022-07-23T02:53:22;15.40;99.90
16158;DHT22;8184;60.256;18.694;2022-07-23T02:55:50;15.30;99.90
16158;DHT22;8184;60.256;18.694;2022-07-23T02:58:18;15.40;99.90
16158;DHT22;8184;60.256;18.694;2022-07-23T03:00:46;15.50;99.90
16158;DHT22;8184;60.256;18.694;2022-07-23T03:03:14;15.50;99.90
16158;DHT22;8184;60.256;18.694;2022-07-23T03:05:42;15.50;99.90
16158;DHT22;8184;60.256;18.694;2022-07-23T03:08:12;15.60;99.90
16158;DHT22;8184;60.256;18.694;2022-07-23T03:10:40;15.60;99.90
16158;DHT22;8184;60.256;18.694;2022-07-23T03:13:08;15.50;99.90
16158;DHT22;8184;60.256;18.694;2022-07-23T03:15:41;15.40;99.90
16158;DHT22;8184;60.256;18.694;2022-07-23T03:18:10;15.20;99.90
16158;DHT22;8184;60.256;18.694;2022-07-23T03:20:38;15.20;99.90
16158;DHT22;8184;60.256;18.694;2022-07-23T03:23:06;15.30;99.90
16158;DHT22;8184;60.256;18.694;2022-07-23T03:25:36;15.40;99.90
16158;DHT22;8184;60.256;18.694;2022-07-23T03:28:05;15.40;99.90
16158;DHT22;8184;60.256;18.694;2022-07-23T03:30:33;15.40;99.90
16158;DHT22;8184;60.256;18.694;2022-07-23T03:33:01;15.40;99.90
16158;DHT22;8184;60.256;18.694;2022-07-23T03:35:29;15.50;99.90
16158;DHT22;8184;60.256;18.694;2022-07-23T03:37:57;15.40;99.90
16158;DHT22;8184;60.256;18.694;2022-07-23T03:40:26;15.40;99.90
16158;DHT22;8184;60.256;18.694;2022-07-23T03:42:56;15.40;99.90
16158;DHT22;8184;60.256;18.694;2022-07-23T03:45:24;15.30;99.90
16158;DHT22;8184;60.256;18.694;2022-07-23T03:47:52;15.50;99.90
16158;DHT22;8184;60.256;18.694;2022-07-23T03:50:20;15.50;99.90
16158;DHT22;8184;60.256;18.694;2022-07-23T03:52:48;15.50;99.90
16158;DHT22;8184;60.256;18.694;2022-07-23T03:55:16;15.30;99.90
16158;DHT22;8184;60.256;18.694;2022-07-23T03:57:47;15.20;99.90
16158;DHT22;8184;60.256;18.694;2022-07-23T04:00:17;15.20;99.90
16158;DHT22;8184;60.256;18.694;2022-07-23T04:02:45;15.10;99.90
16158;DHT22;8184;60.256;18.694;2022-07-23T04:05:16;15.00;99.90
16158;DHT22;8184;60.256;18.694;2022-07-23T04:07:44;14.90;99.90
16158;DHT22;8184;60.256;18.694;2022-07-23T04:10:13;14.90;99.90
16158;DHT22;8184;60.256;18.694;2022-07-23T04:12:42;15.00;99.90
16158;DHT22;8184;60.256;18.694;2022-07-23T04:15:10;15.00;99.90
16158;DHT22;8184;60.256;18.694;2022-07-23T04:17:40;15.20;99.90
16158;DHT22;8184;60.256;18.694;2022-07-23T04:20:08;15.10;99.90
16158;DHT22;8184;60.256;18.694;2022-07-23T04:22:36;15.10;99.90
16158;DHT22;8184;60.256;18.694;2022-07-23T04:25:05;15.00;99.90
16158;DHT22;8184;60.256;18.694;2022-07-23T04:27:33;15.10;99.90
16158;DHT22;8184;60.256;18.694;2022-07-23T04:30:02;15.00;99.90
16158;DHT22;8184;60.256;18.694;2022-07-23T04:32:30;15.00;99.90
16158;DHT22;8184;60.256;18.694;2022-07-23T04:34:59;15.20;99.90
16158;DHT22;8184;60.256;18.694;2022-07-23T04:37:27;15.20;99.90
16158;DHT22;8184;60.256;18.694;2022-07-23T04:39:56;15.10;99.90
16158;DHT22;8184;60.256;18.694;2022-07-23T04:42:24;15.10;99.90
16158;DHT22;8184;60.256;18.694;2022-07-23T04:44:52;15.10;99.90
16158;DHT22;8184;60.256;18.694;2022-07-23T04:47:20;15.10;99.90
16158;DHT22;8184;60.256;18.694;2022-07-23T04:49:54;15.10;99.90
16158;DHT22;8184;60.256;18.694;2022-07-23T04:52:24;15.10;99.90
16158;DHT22;8184;60.256;18.694;2022-07-23T04:54:52;15.10;99.90
16158;DHT22;8184;60.256;18.694;2022-07-23T04:57:20;15.20;99.90
16158;DHT22;8184;60.256;18.694;2022-07-23T04:59:48;15.20;99.90
16158;DHT22;8184;60.256;18.694;2022-07-23T05:02:16;15.00;99.90
16158;DHT22;8184;60.256;18.694;2022-07-23T05:04:44;15.10;99.90
16158;DHT22;8184;60.256;18.694;2022-07-23T05:07:12;15.10;99.90
16158;DHT22;8184;60.256;18.694;2022-07-23T05:09:45;15.00;99.90
16158;DHT22;8184;60.256;18.694;2022-07-23T05:12:13;15.30;99.90
16158;DHT22;8184;60.256;18.694;2022-07-23T05:14:41;15.00;99.90
16158;DHT22;8184;60.256;18.694;2022-07-23T05:17:09;15.00;99.90
16158;DHT22;8184;60.256;18.694;2022-07-23T05:19:37;15.00;99.90
16158;DHT22;8184;60.256;18.694;2022-07-23T05:22:05;15.10;99.90
16158;DHT22;8184;60.256;18.694;2022-07-23T05:24:33;15.10;99.90
16158;DHT22;8184;60.256;18.694;2022-07-23T05:27:03;15.20;99.90
16158;DHT22;8184;60.256;18.694;2022-07-23T05:29:33;15.20;99.90
16158;DHT22;8184;60.256;18.694;2022-07-23T05:32:01;15.10;99.90
16158;DHT22;8184;60.256;18.694;2022-07-23T05:34:32;15.20;99.90
16158;DHT22;8184;60.256;18.694;2022-07-23T05:37:00;15.10;99.90
16158;DHT22;8184;60.256;18.694;2022-07-23T05:39:30;15.20;99.90
16158;DHT22;8184;60.256;18.694;2022-07-23T05:41:58;15.40;99.90
16158;DHT22;8184;60.256;18.694;2022-07-23T05:44:28;15.30;99.90
16158;DHT22;8184;60.256;18.694;2022-07-23T05:47:03;15.30;99.90
16158;DHT22;8184;60.256;18.694;2022-07-23T05:49:31;15.30;99.90
16158;DHT22;8184;60.256;18.694;2022-07-23T05:52:03;15.50;99.90
16158;DHT22;8184;60.256;18.694;2022-07-23T05:54:33;15.30;99.90
16158;DHT22;8184;60.256;18.694;2022-07-23T05:57:02;15.30;99.90
16158;DHT22;8184;60.256;18.694;2022-07-23T05:59:31;15.30;99.90
16158;DHT22;8184;60.256;18.694;2022-07-23T06:01:59;15.30;99.90
16158;DHT22;8184;60.256;18.694;2022-07-23T06:04:27;15.40;99.90
16158;DHT22;8184;60.256;18.694;2022-07-23T06:06:56;15.20;99.90
16158;DHT22;8184;60.256;18.694;2022-07-23T06:09:24;15.30;99.90
16158;DHT22;8184;60.256;18.694;2022-07-23T06:11:52;15.30;99.90
16158;DHT22;8184;60.256;18.694;2022-07-23T06:14:20;15.30;99.90
16158;DHT22;8184;60.256;18.694;2022-07-23T06:16:49;15.30;99.90
16158;DHT22;8184;60.256;18.694;2022-07-23T06:19:17;15.30;99.90
16158;DHT22;8184;60.256;18.694;2022-07-23T06:21:46;15.20;99.90
16158;DHT22;8184;60.256;18.694;2022-07-23T06:24:14;15.30;99.90
16158;DHT22;8184;60.256;18.694;2022-07-23T06:26:45;15.10;99.90
16158;DHT22;8184;60.256;18.694;2022-07-23T06:29:13;15.20;99.90
16158;DHT22;8184;60.256;18.694;2022-07-23T06:31:41;15.20;99.90
16158;DHT22;8184;60.256;18.694;2022-07-23T06:34:11;15.20;99.90
16158;DHT22;8184;60.256;18.694;2022-07-23T06:36:41;15.30;99.90
16158;DHT22;8184;60.256;18.694;2022-07-23T06:39:10;15.20;99.90
16158;DHT22;8184;60.256;18.694;2022-07-23T06:41:41;15.00;99.90
16158;DHT22;8184;60.256;18.694;2022-07-23T06:44:16;15.00;99.90
16158;DHT22;8184;60.256;18.694;2022-07-23T06:46:44;15.20;99.90
16158;DHT22;8184;60.256;18.694;2022-07-23T06:49:14;15.20;99.90
16158;DHT22;8184;60.256;18.694;2022-07-23T06:51:42;15.20;99.90
16158;DHT22;8184;60.256;18.694;2022-07-23T06:54:10;15.20;99.90
16158;DHT22;8184;60.256;18.694;2022-07-23T06:56:44;15.20;99.90
16158;DHT22;8184;60.256;18.694;2022-07-23T06:59:12;15.00;99.90
16158;DHT22;8184;60.256;18.694;2022-07-23T07:01:43;15.20;99.90
16158;DHT22;8184;60.256;18.694;2022-07-23T07:04:12;15.10;99.90
16158;DHT22;8184;60.256;18.694;2022-07-23T07:06:41;15.20;99.90
16158;DHT22;8184;60.256;18.694;2022-07-23T07:09:09;15.20;99.90
16158;DHT22;8184;60.256;18.694;2022-07-23T07:11:41;15.30;99.90
16158;DHT22;8184;60.256;18.694;2022-07-23T07:14:11;15.20;99.90
16158;DHT22;8184;60.256;18.694;2022-07-23T07:16:40;15.30;99.90
16158;DHT22;8184;60.256;18.694;2022-07-23T07:19:10;15.50;99.90
16158;DHT22;8184;60.256;18.694;2022-07-23T07:21:44;15.40;99.90
16158;DHT22;8184;60.256;18.694;2022-07-23T07:24:15;15.30;99.90
16158;DHT22;8184;60.256;18.694;2022-07-23T07:26:57;15.20;99.90
16158;DHT22;8184;60.256;18.694;2022-07-23T07:29:25;15.10;99.90
16158;DHT22;8184;60.256;18.694;2022-07-23T07:31:53;15.20;99.90
16158;DHT22;8184;60.256;18.694;2022-07-23T07:34:22;15.30;99.90
16158;DHT22;8184;60.256;18.694;2022-07-23T07:36:53;15.20;99.90
16158;DHT22;8184;60.256;18.694;2022-07-23T07:39:22;15.20;99.90
16158;DHT22;8184;60.256;18.694;2022-07-23T07:41:50;15.10;99.90
16158;DHT22;8184;60.256;18.694;2022-07-23T07:44:22;15.20;99.90
16158;DHT22;8184;60.256;18.694;2022-07-23T07:46:50;15.10;99.90
16158;DHT22;8184;60.256;18.694;2022-07-23T07:49:20;15.10;99.90
16158;DHT22;8184;60.256;18.694;2022-07-23T07:51:52;15.30;99.90
16158;DHT22;8184;60.256;18.694;2022-07-23T07:54:21;15.30;99.90
16158;DHT22;8184;60.256;18.694;2022-07-23T07:56:49;15.40;99.90
16158;DHT22;8184;60.256;18.694;2022-07-23T07:59:17;15.50;99.90
16158;DHT22;8184;60.256;18.694;2022-07-23T08:01:45;15.40;99.90
16158;DHT22;8184;60.256;18.694;2022-07-23T08:04:17;15.60;99.90
16158;DHT22;8184;60.256;18.694;2022-07-23T08:06:45;15.80;99.90
16158;DHT22;8184;60.256;18.694;2022-07-23T08:09:15;15.70;99.90
16158;DHT22;8184;60.256;18.694;2022-07-23T08:11:43;15.60;99.90
16158;DHT22;8184;60.256;18.694;2022-07-23T08:14:11;15.60;99.90
16158;DHT22;8184;60.256;18.694;2022-07-23T08:16:39;15.70;99.90
16158;DHT22;8184;60.256;18.694;2022-07-23T08:19:27;15.90;99.90
16158;DHT22;8184;60.256;18.694;2022-07-23T08:21:59;16.00;99.90
16158;DHT22;8184;60.256;18.694;2022-07-23T08:24:33;15.90;99.90
16158;DHT22;8184;60.256;18.694;2022-07-23T08:27:06;15.80;99.90
16158;DHT22;8184;60.256;18.694;2022-07-23T08:29:38;15.80;99.90
16158;DHT22;8184;60.256;18.694;2022-07-23T08:32:09;16.00;99.90
16158;DHT22;8184;60.256;18.694;2022-07-23T08:34:57;15.90;99.90
16158;DHT22;8184;60.256;18.694;2022-07-23T08:37:25;15.70;99.90
16158;DHT22;8184;60.256;18.694;2022-07-23T08:39:55;15.70;99.90
16158;DHT22;8184;60.256;18.694;2022-07-23T08:42:24;15.40;99.90
16158;DHT22;8184;60.256;18.694;2022-07-23T08:44:52;15.60;99.90
16158;DHT22;8184;60.256;18.694;2022-07-23T08:47:21;15.50;99.90
16158;DHT22;8184;60.256;18.694;2022-07-23T08:49:51;15.50;99.90
16158;DHT22;8184;60.256;18.694;2022-07-23T08:52:19;15.30;99.90
16158;DHT22;8184;60.256;18.694;2022-07-23T08:54:54;15.30;99.90
16158;DHT22;8184;60.256;18.694;2022-07-23T08:57:23;15.40;99.90
16158;DHT22;8184;60.256;18.694;2022-07-23T08:59:51;15.30;99.90
16158;DHT22;8184;60.256;18.694;2022-07-23T09:02:19;15.30;99.90
16158;DHT22;8184;60.256;18.694;2022-07-23T09:04:47;15.20;99.90
16158;DHT22;8184;60.256;18.694;2022-07-23T09:07:16;15.30;99.90
16158;DHT22;8184;60.256;18.694;2022-07-23T09:09:44;15.30;99.90
16158;DHT22;8184;60.256;18.694;2022-07-23T09:12:14;15.30;99.90
16158;DHT22;8184;60.256;18.694;2022-07-23T09:14:43;15.60;99.90
16158;DHT22;8184;60.256;18.694;2022-07-23T09:17:15;15.60;99.90
16158;DHT22;8184;60.256;18.694;2022-07-23T09:19:44;15.60;99.90
16158;DHT22;8184;60.256;18.694;2022-07-23T09:22:16;15.40;99.90
16158;DHT22;8184;60.256;18.694;2022-07-23T09:25:02;15.40;99.90
16158;DHT22;8184;60.256;18.694;2022-07-23T09:27:46;15.50;99.90
16158;DHT22;8184;60.256;18.694;2022-07-23T09:30:23;15.60;99.90
16158;DHT22;8184;60.256;18.694;2022-07-23T09:33:03;15.70;99.90
16158;DHT22;8184;60.256;18.694;2022-07-23T09:35:43;15.50;99.90
16158;DHT22;8184;60.256;18.694;2022-07-23T09:38:14;15.30;99.90
16158;DHT22;8184;60.256;18.694;2022-07-23T09:40:42;15.50;99.90
16158;DHT22;8184;60.256;18.694;2022-07-23T09:43:25;15.40;99.90
16158;DHT22;8184;60.256;18.694;2022-07-23T09:48:47;15.50;99.90
16158;DHT22;8184;60.256;18.694;2022-07-23T09:51:16;15.10;99.90
16158;DHT22;8184;60.256;18.694;2022-07-23T09:53:45;15.30;99.90
16158;DHT22;8184;60.256;18.694;2022-07-23T09:56:13;15.50;99.90
16158;DHT22;8184;60.256;18.694;2022-07-23T09:58:43;15.70;99.90
16158;DHT22;8184;60.256;18.694;2022-07-23T10:01:16;15.70;99.90
16158;DHT22;8184;60.256;18.694;2022-07-23T10:03:44;15.90;99.90
16158;DHT22;8184;60.256;18.694;2022-07-23T10:06:13;16.10;99.90
16158;DHT22;8184;60.256;18.694;2022-07-23T10:08:41;16.00;99.90
16158;DHT22;8184;60.256;18.694;2022-07-23T10:11:12;15.90;99.90
16158;DHT22;8184;60.256;18.694;2022-07-23T10:13:41;15.70;99.90
16158;DHT22;8184;60.256;18.694;2022-07-23T10:16:28;15.80;99.90
16158;DHT22;8184;60.256;18.694;2022-07-23T10:18:56;15.90;99.90
16158;DHT22;8184;60.256;18.694;2022-07-23T10:21:25;16.00;99.90
16158;DHT22;8184;60.256;18.694;2022-07-23T10:24:04;16.20;99.90
16158;DHT22;8184;60.256;18.694;2022-07-23T10:26:35;16.20;99.90
16158;DHT22;8184;60.256;18.694;2022-07-23T10:29:10;16.30;99.90
16158;DHT22;8184;60.256;18.694;2022-07-23T10:31:43;16.30;99.90
16158;DHT22;8184;60.256;18.694;2022-07-23T10:34:30;16.10;99.90
16158;DHT22;8184;60.256;18.694;2022-07-23T10:37:07;16.10;99.90
16158;DHT22;8184;60.256;18.694;2022-07-23T10:39:37;16.30;99.90
16158;DHT22;8184;60.256;18.694;2022-07-23T10:42:09;16.30;99.90
16158;DHT22;8184;60.256;18.694;2022-07-23T10:44:39;16.30;99.90
16158;DHT22;8184;60.256;18.694;2022-07-23T10:47:10;16.40;99.90
16158;DHT22;8184;60.256;18.694;2022-07-23T10:52:41;16.60;99.90
16158;DHT22;8184;60.256;18.694;2022-07-23T10:57:56;16.50;99.90
16158;DHT22;8184;60.256;18.694;2022-07-23T11:00:24;16.60;99.90
16158;DHT22;8184;60.256;18.694;2022-07-23T11:02:54;16.70;99.90
16158;DHT22;8184;60.256;18.694;2022-07-23T11:05:23;16.70;99.90
16158;DHT22;8184;60.256;18.694;2022-07-23T11:08:11;16.70;99.90
16158;DHT22;8184;60.256;18.694;2022-07-23T11:10:42;16.80;99.90
16158;DHT22;8184;60.256;18.694;2022-07-23T11:16:12;16.90;99.90
16158;DHT22;8184;60.256;18.694;2022-07-23T11:18:59;17.00;99.90
16158;DHT22;8184;60.256;18.694;2022-07-23T11:21:44;16.90;99.90
16158;DHT22;8184;60.256;18.694;2022-07-23T11:24:14;16.90;99.90
16158;DHT22;8184;60.256;18.694;2022-07-23T11:32:33;16.90;99.90
16158;DHT22;8184;60.256;18.694;2022-07-23T11:35:06;17.00;99.90
16158;DHT22;8184;60.256;18.694;2022-07-23T11:37:46;16.80;99.90
16158;DHT22;8184;60.256;18.694;2022-07-23T11:40:15;17.20;99.90
16158;DHT22;8184;60.256;18.694;2022-07-23T11:42:51;17.30;99.90
16158;DHT22;8184;60.256;18.694;2022-07-23T11:45:20;17.10;99.90
16158;DHT22;8184;60.256;18.694;2022-07-23T11:47:48;17.10;99.90
16158;DHT22;8184;60.256;18.694;2022-07-23T11:50:22;17.30;99.90
16158;DHT22;8184;60.256;18.694;2022-07-23T11:52:50;17.40;99.90
16158;DHT22;8184;60.256;18.694;2022-07-23T11:55:21;17.60;99.90
16158;DHT22;8184;60.256;18.694;2022-07-23T11:57:50;17.30;99.90
16158;DHT22;8184;60.256;18.694;2022-07-23T12:00:19;17.00;99.90
16158;DHT22;8184;60.256;18.694;2022-07-23T12:02:48;16.90;99.90
16158;DHT22;8184;60.256;18.694;2022-07-23T12:05:19;17.20;99.90
16158;DHT22;8184;60.256;18.694;2022-07-23T12:07:49;17.70;99.90
16158;DHT22;8184;60.256;18.694;2022-07-23T12:10:18;17.70;99.90
16158;DHT22;8184;60.256;18.694;2022-07-23T12:12:47;18.10;99.90
16158;DHT22;8184;60.256;18.694;2022-07-23T12:15:17;17.80;99.90
16158;DHT22;8184;60.256;18.694;2022-07-23T12:17:46;18.00;99.90
16158;DHT22;8184;60.256;18.694;2022-07-23T12:20:18;18.00;99.90
16158;DHT22;8184;60.256;18.694;2022-07-23T12:22:49;18.60;99.90
16158;DHT22;8184;60.256;18.694;2022-07-23T12:25:18;18.40;99.90
16158;DHT22;8184;60.256;18.694;2022-07-23T12:27:58;18.20;99.90
16158;DHT22;8184;60.256;18.694;2022-07-23T12:30:27;18.30;99.90
16158;DHT22;8184;60.256;18.694;2022-07-23T12:33:00;18.70;99.90
16158;DHT22;8184;60.256;18.694;2022-07-23T12:35:33;18.30;99.90
16158;DHT22;8184;60.256;18.694;2022-07-23T12:38:05;18.80;99.90
16158;DHT22;8184;60.256;18.694;2022-07-23T12:40:34;18.70;99.90
16158;DHT22;8184;60.256;18.694;2022-07-23T12:43:04;18.50;99.90
16158;DHT22;8184;60.256;18.694;2022-07-23T12:45:42;18.60;99.90
16158;DHT22;8184;60.256;18.694;2022-07-23T12:48:15;18.00;99.90
16158;DHT22;8184;60.256;18.694;2022-07-23T12:50:51;18.20;99.90
16158;DHT22;8184;60.256;18.694;2022-07-23T12:53:21;17.80;99.90
16158;DHT22;8184;60.256;18.694;2022-07-23T12:55:50;18.50;99.90
16158;DHT22;8184;60.256;18.694;2022-07-23T12:58:44;19.10;99.90
16158;DHT22;8184;60.256;18.694;2022-07-23T13:01:27;19.10;99.90
16158;DHT22;8184;60.256;18.694;2022-07-23T13:03:57;18.60;99.90
16158;DHT22;8184;60.256;18.694;2022-07-23T13:06:25;18.70;99.90
16158;DHT22;8184;60.256;18.694;2022-07-23T13:08:56;19.40;99.90
16158;DHT22;8184;60.256;18.694;2022-07-23T13:11:25;19.40;99.90
16158;DHT22;8184;60.256;18.694;2022-07-23T13:13:53;18.90;99.90
16158;DHT22;8184;60.256;18.694;2022-07-23T13:16:21;18.90;99.90
16158;DHT22;8184;60.256;18.694;2022-07-23T13:18:53;18.80;99.90
16158;DHT22;8184;60.256;18.694;2022-07-23T13:21:25;18.80;99.90
16158;DHT22;8184;60.256;18.694;2022-07-23T13:23:56;19.40;99.90
16158;DHT22;8184;60.256;18.694;2022-07-23T13:26:25;19.80;99.90
16158;DHT22;8184;60.256;18.694;2022-07-23T13:28:53;19.80;99.90
16158;DHT22;8184;60.256;18.694;2022-07-23T13:31:21;20.20;99.90
16158;DHT22;8184;60.256;18.694;2022-07-23T13:33:50;19.40;99.90
16158;DHT22;8184;60.256;18.694;2022-07-23T13:36:18;19.40;99.90
16158;DHT22;8184;60.256;18.694;2022-07-23T13:38:46;19.50;99.90
16158;DHT22;8184;60.256;18.694;2022-07-23T13:41:17;20.40;99.90
16158;DHT22;8184;60.256;18.694;2022-07-23T13:43:45;20.10;99.90
16158;DHT22;8184;60.256;18.694;2022-07-23T13:46:13;19.40;99.90
16158;DHT22;8184;60.256;18.694;2022-07-23T13:48:42;19.90;99.90
16158;DHT22;8184;60.256;18.694;2022-07-23T13:51:10;19.90;99.90
16158;DHT22;8184;60.256;18.694;2022-07-23T13:53:39;19.90;99.90
16158;DHT22;8184;60.256;18.694;2022-07-23T13:56:07;19.70;99.90
16158;DHT22;8184;60.256;18.694;2022-07-23T13:58:37;19.50;99.90
16158;DHT22;8184;60.256;18.694;2022-07-23T14:01:07;19.10;99.90
16158;DHT22;8184;60.256;18.694;2022-07-23T14:03:38;19.20;99.90
16158;DHT22;8184;60.256;18.694;2022-07-23T14:06:07;19.40;99.90
16158;DHT22;8184;60.256;18.694;2022-07-23T14:08:42;19.80;99.90
16158;DHT22;8184;60.256;18.694;2022-07-23T14:11:11;19.10;99.90
16158;DHT22;8184;60.256;18.694;2022-07-23T14:13:41;19.60;99.90
16158;DHT22;8184;60.256;18.694;2022-07-23T14:16:09;19.40;99.90
16158;DHT22;8184;60.256;18.694;2022-07-23T14:18:37;19.20;99.90
16158;DHT22;8184;60.256;18.694;2022-07-23T14:21:06;19.90;99.90
16158;DHT22;8184;60.256;18.694;2022-07-23T14:23:35;19.90;99.90
16158;DHT22;8184;60.256;18.694;2022-07-23T14:26:07;19.60;99.90
16158;DHT22;8184;60.256;18.694;2022-07-23T14:28:37;19.30;99.90
16158;DHT22;8184;60.256;18.694;2022-07-23T14:31:12;18.80;99.90
16158;DHT22;8184;60.256;18.694;2022-07-23T14:34:01;18.80;99.90
16158;DHT22;8184;60.256;18.694;2022-07-23T14:36:30;19.80;99.90
16158;DHT22;8184;60.256;18.694;2022-07-23T14:39:00;19.70;99.90
16158;DHT22;8184;60.256;18.694;2022-07-23T14:41:28;20.10;99.90
16158;DHT22;8184;60.256;18.694;2022-07-23T14:43:57;19.90;99.90
16158;DHT22;8184;60.256;18.694;2022-07-23T14:46:26;20.00;99.90
16158;DHT22;8184;60.256;18.694;2022-07-23T14:48:55;19.70;99.90
16158;DHT22;8184;60.256;18.694;2022-07-23T14:51:27;19.60;99.90
16158;DHT22;8184;60.256;18.694;2022-07-23T14:53:56;20.00;99.90
16158;DHT22;8184;60.256;18.694;2022-07-23T14:56:24;20.80;99.90
16158;DHT22;8184;60.256;18.694;2022-07-23T14:58:52;20.10;99.90
16158;DHT22;8184;60.256;18.694;2022-07-23T15:01:22;20.10;99.90
16158;DHT22;8184;60.256;18.694;2022-07-23T15:03:53;20.60;99.90
16158;DHT22;8184;60.256;18.694;2022-07-23T15:06:25;20.00;99.90
16158;DHT22;8184;60.256;18.694;2022-07-23T15:08:53;19.60;99.90
16158;DHT22;8184;60.256;18.694;2022-07-23T15:11:21;19.90;99.90
16158;DHT22;8184;60.256;18.694;2022-07-23T15:13:51;20.50;99.90
16158;DHT22;8184;60.256;18.694;2022-07-23T15:16:19;20.80;99.90
16158;DHT22;8184;60.256;18.694;2022-07-23T15:18:50;21.20;99.90
16158;DHT22;8184;60.256;18.694;2022-07-23T15:21:19;21.10;99.90
16158;DHT22;8184;60.256;18.694;2022-07-23T15:23:48;20.10;99.90
16158;DHT22;8184;60.256;18.694;2022-07-23T15:26:17;20.20;99.90
16158;DHT22;8184;60.256;18.694;2022-07-23T15:28:45;20.90;99.90
16158;DHT22;8184;60.256;18.694;2022-07-23T15:31:13;20.60;99.90
16158;DHT22;8184;60.256;18.694;2022-07-23T15:33:42;20.40;99.90
16158;DHT22;8184;60.256;18.694;2022-07-23T15:36:10;20.40;99.90
16158;DHT22;8184;60.256;18.694;2022-07-23T15:38:39;20.70;99.90
16158;DHT22;8184;60.256;18.694;2022-07-23T15:41:09;20.80;99.90
16158;DHT22;8184;60.256;18.694;2022-07-23T15:43:44;21.40;99.90
16158;DHT22;8184;60.256;18.694;2022-07-23T15:46:13;21.60;99.90
16158;DHT22;8184;60.256;18.694;2022-07-23T15:48:51;20.10;99.90
16158;DHT22;8184;60.256;18.694;2022-07-23T15:51:19;20.50;99.90
16158;DHT22;8184;60.256;18.694;2022-07-23T15:53:49;21.00;99.90
16158;DHT22;8184;60.256;18.694;2022-07-23T15:56:17;21.10;99.90
16158;DHT22;8184;60.256;18.694;2022-07-23T15:58:45;21.40;99.90
16158;DHT22;8184;60.256;18.694;2022-07-23T16:01:13;20.80;99.90
16158;DHT22;8184;60.256;18.694;2022-07-23T16:03:42;21.00;99.90
16158;DHT22;8184;60.256;18.694;2022-07-23T16:06:13;20.80;99.90